sensor_id;sensor_type;location;lat;lon;timestamp;P1;durP1;ratioP1;P2;durP2;ratioP2
36475;SDS011;56615;42.682;23.364;2022-08-11T00:00:44;8.97;;;4.80;;
36475;SDS011;56615;42.682;23.364;2022-08-11T00:03:11;7.93;;;4.85;;
36475;SDS011;56615;42.682;23.364;2022-08-11T00:05:44;7.00;;;4.22;;
36475;SDS011;56615;42.682;23.364;2022-08-11T00:08:18;8.00;;;4.68;;
36475;SDS011;56615;42.682;23.364;2022-08-11T00:10:55;7.80;;;4.50;;
36475;SDS011;56615;42.682;23.364;2022-08-11T00:13:22;7.30;;;4.70;;
36475;SDS011;56615;42.682;23.364;2022-08-11T00:15:58;9.10;;;5.03;;
36475;SDS011;56615;42.682;23.364;2022-08-11T00:18:25;8.35;;;5.00;;
36475;SDS011;56615;42.682;23.364;2022-08-11T00:20:51;7.85;;;5.00;;
36475;SDS011;56615;42.682;23.364;2022-08-11T00:23:25;8.35;;;4.72;;
36475;SDS011;56615;42.682;23.364;2022-08-11T00:25:51;6.25;;;4.30;;
36475;SDS011;56615;42.682;23.364;2022-08-11T00:28:24;6.82;;;4.55;;
36475;SDS011;56615;42.682;23.364;2022-08-11T00:30:57;6.50;;;4.65;;
36475;SDS011;56615;42.682;23.364;2022-08-11T00:33:29;8.98;;;5.03;;
36475;SDS011;56615;42.682;23.364;2022-08-11T00:36:02;8.60;;;4.55;;
36475;SDS011;56615;42.682;23.364;2022-08-11T00:38:31;6.90;;;4.40;;
36475;SDS011;56615;42.682;23.364;2022-08-11T00:41:10;6.70;;;4.70;;
36475;SDS011;56615;42.682;23.364;2022-08-11T00:44:14;7.53;;;4.80;;
36475;SDS011;56615;42.682;23.364;2022-08-11T01:00:20;7.88;;;5.07;;
36475;SDS011;56615;42.682;23.364;2022-08-11T01:18:09;10.13;;;4.95;;
36475;SDS011;56615;42.682;23.364;2022-08-11T01:35:16;6.55;;;4.82;;
36475;SDS011;56615;42.682;23.364;2022-08-11T01:40:50;7.45;;;4.82;;
36475;SDS011;56615;42.682;23.364;2022-08-11T01:49:39;8.18;;;4.55;;
36475;SDS011;56615;42.682;23.364;2022-08-11T01:55:23;8.05;;;5.07;;
36475;SDS011;56615;42.682;23.364;2022-08-11T01:58:07;7.60;;;4.82;;
36475;SDS011;56615;42.682;23.364;2022-08-11T02:03:57;8.38;;;5.03;;
36475;SDS011;56615;42.682;23.364;2022-08-11T02:16:25;7.20;;;4.53;;
36475;SDS011;56615;42.682;23.364;2022-08-11T02:25:49;8.32;;;5.07;;
36475;SDS011;56615;42.682;23.364;2022-08-11T02:28:22;8.95;;;5.00;;
36475;SDS011;56615;42.682;23.364;2022-08-11T02:31:02;8.02;;;5.22;;
36475;SDS011;56615;42.682;23.364;2022-08-11T02:40:09;14.63;;;5.60;;
36475;SDS011;56615;42.682;23.364;2022-08-11T02:43:16;8.35;;;4.75;;
36475;SDS011;56615;42.682;23.364;2022-08-11T02:50:21;7.40;;;5.18;;
36475;SDS011;56615;42.682;23.364;2022-08-11T02:53:21;12.85;;;5.32;;
36475;SDS011;56615;42.682;23.364;2022-08-11T02:59:27;8.68;;;5.38;;
36475;SDS011;56615;42.682;23.364;2022-08-11T03:05:29;9.40;;;5.47;;
36475;SDS011;56615;42.682;23.364;2022-08-11T03:08:49;8.93;;;4.80;;
36475;SDS011;56615;42.682;23.364;2022-08-11T03:12:01;10.35;;;5.35;;
36475;SDS011;56615;42.682;23.364;2022-08-11T03:15:10;12.32;;;6.05;;
36475;SDS011;56615;42.682;23.364;2022-08-11T03:18:27;13.55;;;5.47;;
36475;SDS011;56615;42.682;23.364;2022-08-11T03:21:22;8.27;;;5.50;;
36475;SDS011;56615;42.682;23.364;2022-08-11T03:24:21;8.10;;;5.20;;
36475;SDS011;56615;42.682;23.364;2022-08-11T03:30:34;8.05;;;5.38;;
36475;SDS011;56615;42.682;23.364;2022-08-11T03:33:46;8.63;;;5.32;;
36475;SDS011;56615;42.682;23.364;2022-08-11T03:43:55;8.77;;;5.68;;
36475;SDS011;56615;42.682;23.364;2022-08-11T03:54:21;8.70;;;5.70;;
36475;SDS011;56615;42.682;23.364;2022-08-11T04:23:12;8.85;;;4.88;;
36475;SDS011;56615;42.682;23.364;2022-08-11T05:30:06;8.07;;;4.53;;
36475;SDS011;56615;42.682;23.364;2022-08-11T05:33:33;9.15;;;4.53;;
36475;SDS011;56615;42.682;23.364;2022-08-11T05:37:08;12.43;;;5.22;;
36475;SDS011;56615;42.682;23.364;2022-08-11T08:40:52;2.72;;;2.45;;
36475;SDS011;56615;42.682;23.364;2022-08-11T08:50:19;6.78;;;2.83;;
36475;SDS011;56615;42.682;23.364;2022-08-11T08:53:33;8.85;;;2.90;;
36475;SDS011;56615;42.682;23.364;2022-08-11T08:59:40;6.43;;;3.38;;
36475;SDS011;56615;42.682;23.364;2022-08-11T09:02:25;7.40;;;3.20;;
36475;SDS011;56615;42.682;23.364;2022-08-11T09:05:17;8.65;;;4.07;;
36475;SDS011;56615;42.682;23.364;2022-08-11T09:10:23;6.30;;;3.30;;
36475;SDS011;56615;42.682;23.364;2022-08-11T09:13:01;6.18;;;3.20;;
36475;SDS011;56615;42.682;23.364;2022-08-11T09:16:02;7.78;;;3.65;;
36475;SDS011;56615;42.682;23.364;2022-08-11T09:18:32;4.97;;;3.33;;
36475;SDS011;56615;42.682;23.364;2022-08-11T09:21:12;6.72;;;3.20;;
36475;SDS011;56615;42.682;23.364;2022-08-11T09:23:48;5.07;;;3.13;;
36475;SDS011;56615;42.682;23.364;2022-08-11T09:26:46;7.05;;;3.10;;
36475;SDS011;56615;42.682;23.364;2022-08-11T09:29:56;4.47;;;3.08;;
36475;SDS011;56615;42.682;23.364;2022-08-11T09:32:24;6.57;;;3.45;;
36475;SDS011;56615;42.682;23.364;2022-08-11T09:34:56;3.90;;;3.13;;
36475;SDS011;56615;42.682;23.364;2022-08-11T09:38:01;5.93;;;3.20;;
36475;SDS011;56615;42.682;23.364;2022-08-11T09:40:50;4.38;;;2.95;;
36475;SDS011;56615;42.682;23.364;2022-08-11T09:43:23;6.18;;;3.10;;
36475;SDS011;56615;42.682;23.364;2022-08-11T09:46:11;6.03;;;3.50;;
36475;SDS011;56615;42.682;23.364;2022-08-11T09:48:44;6.22;;;3.40;;
36475;SDS011;56615;42.682;23.364;2022-08-11T09:51:20;5.68;;;3.25;;
36475;SDS011;56615;42.682;23.364;2022-08-11T09:53:53;7.00;;;3.40;;
36475;SDS011;56615;42.682;23.364;2022-08-11T09:56:21;8.55;;;3.70;;
36475;SDS011;56615;42.682;23.364;2022-08-11T09:59:06;6.35;;;3.35;;
36475;SDS011;56615;42.682;23.364;2022-08-11T10:13:21;6.18;;;3.90;;
36475;SDS011;56615;42.682;23.364;2022-08-11T10:18:46;7.70;;;3.75;;
36475;SDS011;56615;42.682;23.364;2022-08-11T10:23:57;5.63;;;3.90;;
36475;SDS011;56615;42.682;23.364;2022-08-11T10:26:44;7.00;;;4.00;;
36475;SDS011;56615;42.682;23.364;2022-08-11T10:29:22;6.90;;;3.83;;
36475;SDS011;56615;42.682;23.364;2022-08-11T10:32:08;6.22;;;3.65;;
36475;SDS011;56615;42.682;23.364;2022-08-11T10:34:53;5.88;;;3.53;;
36475;SDS011;56615;42.682;23.364;2022-08-11T10:37:23;6.03;;;4.07;;
36475;SDS011;56615;42.682;23.364;2022-08-11T10:39:51;4.38;;;3.35;;
36475;SDS011;56615;42.682;23.364;2022-08-11T10:42:26;6.22;;;3.90;;
36475;SDS011;56615;42.682;23.364;2022-08-11T10:45:12;4.45;;;3.28;;
36475;SDS011;56615;42.682;23.364;2022-08-11T10:47:57;4.68;;;3.17;;
36475;SDS011;56615;42.682;23.364;2022-08-11T10:50:24;5.97;;;3.40;;
36475;SDS011;56615;42.682;23.364;2022-08-11T10:53:11;6.28;;;3.67;;
36475;SDS011;56615;42.682;23.364;2022-08-11T10:55:58;4.80;;;3.17;;
36475;SDS011;56615;42.682;23.364;2022-08-11T10:58:42;6.00;;;3.30;;
36475;SDS011;56615;42.682;23.364;2022-08-11T11:01:14;5.65;;;3.58;;
36475;SDS011;56615;42.682;23.364;2022-08-11T11:04:03;5.93;;;3.60;;
36475;SDS011;56615;42.682;23.364;2022-08-11T11:06:37;4.47;;;3.25;;
36475;SDS011;56615;42.682;23.364;2022-08-11T11:09:23;6.80;;;3.80;;
36475;SDS011;56615;42.682;23.364;2022-08-11T11:12:17;7.70;;;3.90;;
36475;SDS011;56615;42.682;23.364;2022-08-11T11:15:22;6.57;;;3.67;;
36475;SDS011;56615;42.682;23.364;2022-08-11T11:18:09;5.32;;;3.60;;
36475;SDS011;56615;42.682;23.364;2022-08-11T11:21:02;6.22;;;3.83;;
36475;SDS011;56615;42.682;23.364;2022-08-11T11:23:40;6.95;;;3.90;;
36475;SDS011;56615;42.682;23.364;2022-08-11T11:34:44;6.45;;;3.75;;
36475;SDS011;56615;42.682;23.364;2022-08-11T11:37:35;6.03;;;3.70;;
36475;SDS011;56615;42.682;23.364;2022-08-11T11:40:11;5.60;;;3.80;;
36475;SDS011;56615;42.682;23.364;2022-08-11T11:42:40;7.88;;;4.35;;
36475;SDS011;56615;42.682;23.364;2022-08-11T11:45:14;5.60;;;3.05;;
36475;SDS011;56615;42.682;23.364;2022-08-11T11:47:43;8.32;;;3.40;;
36475;SDS011;56615;42.682;23.364;2022-08-11T11:50:09;6.45;;;3.22;;
36475;SDS011;56615;42.682;23.364;2022-08-11T11:52:38;8.35;;;3.50;;
36475;SDS011;56615;42.682;23.364;2022-08-11T11:55:05;6.03;;;3.35;;
36475;SDS011;56615;42.682;23.364;2022-08-11T11:57:36;5.10;;;3.10;;
36475;SDS011;56615;42.682;23.364;2022-08-11T12:00:29;6.10;;;3.17;;
36475;SDS011;56615;42.682;23.364;2022-08-11T12:03:15;4.78;;;2.88;;
36475;SDS011;56615;42.682;23.364;2022-08-11T12:06:12;6.18;;;3.22;;
36475;SDS011;56615;42.682;23.364;2022-08-11T12:08:40;4.78;;;3.58;;
36475;SDS011;56615;42.682;23.364;2022-08-11T12:11:38;6.90;;;3.50;;
36475;SDS011;56615;42.682;23.364;2022-08-11T12:14:52;11.32;;;4.10;;
36475;SDS011;56615;42.682;23.364;2022-08-11T12:17:36;6.07;;;3.90;;
36475;SDS011;56615;42.682;23.364;2022-08-11T12:20:25;5.95;;;3.60;;
36475;SDS011;56615;42.682;23.364;2022-08-11T12:23:01;6.80;;;3.53;;
36475;SDS011;56615;42.682;23.364;2022-08-11T12:26:31;7.82;;;3.90;;
36475;SDS011;56615;42.682;23.364;2022-08-11T12:29:34;4.93;;;3.40;;
36475;SDS011;56615;42.682;23.364;2022-08-11T12:33:08;6.93;;;3.80;;
36475;SDS011;56615;42.682;23.364;2022-08-11T12:36:27;7.03;;;3.40;;
36475;SDS011;56615;42.682;23.364;2022-08-11T12:42:32;6.00;;;3.53;;
36475;SDS011;56615;42.682;23.364;2022-08-11T12:49:40;4.60;;;2.88;;
36475;SDS011;56615;42.682;23.364;2022-08-11T12:56:05;5.13;;;3.08;;
36475;SDS011;56615;42.682;23.364;2022-08-11T13:02:54;5.53;;;3.22;;
36475;SDS011;56615;42.682;23.364;2022-08-11T13:06:16;5.15;;;3.33;;
36475;SDS011;56615;42.682;23.364;2022-08-11T13:08:43;5.15;;;3.22;;
36475;SDS011;56615;42.682;23.364;2022-08-11T13:11:11;5.53;;;3.47;;
36475;SDS011;56615;42.682;23.364;2022-08-11T13:13:57;8.80;;;3.60;;
36475;SDS011;56615;42.682;23.364;2022-08-11T13:16:33;6.15;;;3.40;;
36475;SDS011;56615;42.682;23.364;2022-08-11T13:22:22;5.20;;;3.38;;
36475;SDS011;56615;42.682;23.364;2022-08-11T13:24:51;5.47;;;3.50;;
36475;SDS011;56615;42.682;23.364;2022-08-11T13:27:19;5.70;;;3.33;;
36475;SDS011;56615;42.682;23.364;2022-08-11T13:29:45;5.03;;;3.30;;
36475;SDS011;56615;42.682;23.364;2022-08-11T13:32:12;5.07;;;3.08;;
36475;SDS011;56615;42.682;23.364;2022-08-11T13:34:39;5.15;;;2.80;;
36475;SDS011;56615;42.682;23.364;2022-08-11T13:37:09;3.75;;;2.47;;
36475;SDS011;56615;42.682;23.364;2022-08-11T13:39:39;6.93;;;2.70;;
36475;SDS011;56615;42.682;23.364;2022-08-11T13:44:35;4.25;;;2.70;;
36475;SDS011;56615;42.682;23.364;2022-08-11T13:47:04;5.55;;;2.80;;
36475;SDS011;56615;42.682;23.364;2022-08-11T13:49:34;6.75;;;2.78;;
36475;SDS011;56615;42.682;23.364;2022-08-11T13:52:02;5.40;;;2.78;;
36475;SDS011;56615;42.682;23.364;2022-08-11T13:54:33;5.97;;;2.90;;
36475;SDS011;56615;42.682;23.364;2022-08-11T13:59:27;5.03;;;2.80;;
36475;SDS011;56615;42.682;23.364;2022-08-11T14:01:55;5.57;;;2.83;;
36475;SDS011;56615;42.682;23.364;2022-08-11T14:05:11;4.85;;;2.60;;
36475;SDS011;56615;42.682;23.364;2022-08-11T14:07:37;5.57;;;2.85;;
36475;SDS011;56615;42.682;23.364;2022-08-11T14:10:04;4.10;;;2.92;;
36475;SDS011;56615;42.682;23.364;2022-08-11T14:12:32;4.72;;;3.03;;
36475;SDS011;56615;42.682;23.364;2022-08-11T14:18:06;4.78;;;2.85;;
36475;SDS011;56615;42.682;23.364;2022-08-11T14:23:54;5.55;;;2.67;;
36475;SDS011;56615;42.682;23.364;2022-08-11T14:26:21;5.35;;;2.40;;
36475;SDS011;56615;42.682;23.364;2022-08-11T14:31:48;4.82;;;3.10;;
36475;SDS011;56615;42.682;23.364;2022-08-11T14:34:19;5.82;;;3.00;;
36475;SDS011;56615;42.682;23.364;2022-08-11T14:36:55;5.10;;;3.15;;
36475;SDS011;56615;42.682;23.364;2022-08-11T14:39:23;5.72;;;2.90;;
36475;SDS011;56615;42.682;23.364;2022-08-11T14:41:58;4.50;;;3.13;;
36475;SDS011;56615;42.682;23.364;2022-08-11T14:44:56;5.60;;;3.30;;
36475;SDS011;56615;42.682;23.364;2022-08-11T14:47:51;4.57;;;3.00;;
36475;SDS011;56615;42.682;23.364;2022-08-11T14:50:29;4.75;;;3.50;;
36475;SDS011;56615;42.682;23.364;2022-08-11T14:56:04;6.63;;;3.63;;
36475;SDS011;56615;42.682;23.364;2022-08-11T14:58:50;5.28;;;3.67;;
36475;SDS011;56615;42.682;23.364;2022-08-11T15:01:20;4.35;;;3.25;;
36475;SDS011;56615;42.682;23.364;2022-08-11T15:04:08;5.50;;;3.78;;
36475;SDS011;56615;42.682;23.364;2022-08-11T15:06:55;4.85;;;3.30;;
36475;SDS011;56615;42.682;23.364;2022-08-11T15:09:25;6.30;;;3.45;;
36475;SDS011;56615;42.682;23.364;2022-08-11T15:11:54;5.97;;;3.30;;
36475;SDS011;56615;42.682;23.364;2022-08-11T15:14:40;6.85;;;3.38;;
36475;SDS011;56615;42.682;23.364;2022-08-11T15:17:25;6.57;;;3.20;;
36475;SDS011;56615;42.682;23.364;2022-08-11T15:19:51;5.32;;;3.00;;
36475;SDS011;56615;42.682;23.364;2022-08-11T15:22:37;9.60;;;3.70;;
36475;SDS011;56615;42.682;23.364;2022-08-11T15:25:22;6.65;;;3.13;;
36475;SDS011;56615;42.682;23.364;2022-08-11T15:27:47;4.53;;;2.85;;
36475;SDS011;56615;42.682;23.364;2022-08-11T15:30:54;4.80;;;3.42;;
36475;SDS011;56615;42.682;23.364;2022-08-11T15:33:39;5.68;;;3.38;;
36475;SDS011;56615;42.682;23.364;2022-08-11T15:36:31;6.70;;;3.45;;
36475;SDS011;56615;42.682;23.364;2022-08-11T15:39:26;5.55;;;3.80;;
36475;SDS011;56615;42.682;23.364;2022-08-11T15:42:01;4.55;;;3.10;;
36475;SDS011;56615;42.682;23.364;2022-08-11T15:47:40;6.00;;;3.20;;
36475;SDS011;56615;42.682;23.364;2022-08-11T15:50:14;5.13;;;3.35;;
36475;SDS011;56615;42.682;23.364;2022-08-11T15:52:52;9.95;;;3.30;;
36475;SDS011;56615;42.682;23.364;2022-08-11T15:55:21;5.95;;;3.05;;
36475;SDS011;56615;42.682;23.364;2022-08-11T15:57:48;5.68;;;2.90;;
36475;SDS011;56615;42.682;23.364;2022-08-11T16:00:34;4.95;;;3.13;;
36475;SDS011;56615;42.682;23.364;2022-08-11T16:03:19;5.43;;;2.97;;
36475;SDS011;56615;42.682;23.364;2022-08-11T16:06:08;6.57;;;2.97;;
36475;SDS011;56615;42.682;23.364;2022-08-11T16:08:33;4.63;;;3.22;;
36475;SDS011;56615;42.682;23.364;2022-08-11T16:11:07;7.10;;;2.90;;
36475;SDS011;56615;42.682;23.364;2022-08-11T16:13:38;5.68;;;3.20;;
36475;SDS011;56615;42.682;23.364;2022-08-11T16:16:04;5.95;;;3.25;;
36475;SDS011;56615;42.682;23.364;2022-08-11T16:18:41;6.55;;;3.55;;
36475;SDS011;56615;42.682;23.364;2022-08-11T16:21:14;7.07;;;3.25;;
36475;SDS011;56615;42.682;23.364;2022-08-11T16:23:51;6.15;;;2.88;;
36475;SDS011;56615;42.682;23.364;2022-08-11T16:26:22;7.72;;;3.60;;
36475;SDS011;56615;42.682;23.364;2022-08-11T16:28:50;8.30;;;3.30;;
36475;SDS011;56615;42.682;23.364;2022-08-11T16:31:17;6.07;;;3.90;;
36475;SDS011;56615;42.682;23.364;2022-08-11T16:33:44;9.25;;;3.65;;
36475;SDS011;56615;42.682;23.364;2022-08-11T16:36:11;6.60;;;3.90;;
36475;SDS011;56615;42.682;23.364;2022-08-11T16:38:58;7.43;;;3.50;;
36475;SDS011;56615;42.682;23.364;2022-08-11T16:41:26;8.43;;;4.28;;
36475;SDS011;56615;42.682;23.364;2022-08-11T16:44:14;4.97;;;3.25;;
36475;SDS011;56615;42.682;23.364;2022-08-11T16:46:59;8.13;;;3.63;;
36475;SDS011;56615;42.682;23.364;2022-08-11T16:49:34;6.97;;;3.38;;
36475;SDS011;56615;42.682;23.364;2022-08-11T16:52:02;10.13;;;3.85;;
36475;SDS011;56615;42.682;23.364;2022-08-11T16:54:32;8.55;;;4.60;;
36475;SDS011;56615;42.682;23.364;2022-08-11T16:57:02;7.32;;;4.03;;
36475;SDS011;56615;42.682;23.364;2022-08-11T16:59:48;6.20;;;3.80;;
36475;SDS011;56615;42.682;23.364;2022-08-11T17:02:16;7.32;;;4.70;;
36475;SDS011;56615;42.682;23.364;2022-08-11T17:05:12;9.23;;;4.60;;
36475;SDS011;56615;42.682;23.364;2022-08-11T17:08:00;6.18;;;3.75;;
36475;SDS011;56615;42.682;23.364;2022-08-11T17:10:48;8.00;;;3.78;;
36475;SDS011;56615;42.682;23.364;2022-08-11T17:16:20;6.75;;;4.20;;
36475;SDS011;56615;42.682;23.364;2022-08-11T17:24:52;6.93;;;3.85;;
36475;SDS011;56615;42.682;23.364;2022-08-11T17:27:35;9.38;;;4.30;;
36475;SDS011;56615;42.682;23.364;2022-08-11T17:30:17;4.10;;;3.15;;
36475;SDS011;56615;42.682;23.364;2022-08-11T17:32:54;5.88;;;3.72;;
36475;SDS011;56615;42.682;23.364;2022-08-11T17:35:47;8.25;;;4.03;;
36475;SDS011;56615;42.682;23.364;2022-08-11T17:38:26;8.07;;;4.28;;
36475;SDS011;56615;42.682;23.364;2022-08-11T17:41:26;7.13;;;3.88;;
36475;SDS011;56615;42.682;23.364;2022-08-11T17:44:27;5.65;;;3.90;;
36475;SDS011;56615;42.682;23.364;2022-08-11T17:47:34;6.05;;;3.60;;
36475;SDS011;56615;42.682;23.364;2022-08-11T17:50:17;9.45;;;3.97;;
36475;SDS011;56615;42.682;23.364;2022-08-11T17:52:45;8.13;;;4.82;;
36475;SDS011;56615;42.682;23.364;2022-08-11T17:55:45;6.70;;;4.13;;
36475;SDS011;56615;42.682;23.364;2022-08-11T17:58:40;7.20;;;4.00;;
36475;SDS011;56615;42.682;23.364;2022-08-11T18:01:27;5.70;;;3.67;;
36475;SDS011;56615;42.682;23.364;2022-08-11T18:03:57;7.53;;;3.90;;
36475;SDS011;56615;42.682;23.364;2022-08-11T18:06:39;9.43;;;3.60;;
36475;SDS011;56615;42.682;23.364;2022-08-11T18:09:16;6.20;;;3.20;;
36475;SDS011;56615;42.682;23.364;2022-08-11T18:12:03;8.85;;;4.30;;
36475;SDS011;56615;42.682;23.364;2022-08-11T18:14:50;6.10;;;3.80;;
36475;SDS011;56615;42.682;23.364;2022-08-11T18:17:36;6.43;;;3.80;;
36475;SDS011;56615;42.682;23.364;2022-08-11T18:20:22;7.32;;;3.83;;
36475;SDS011;56615;42.682;23.364;2022-08-11T18:23:22;6.47;;;3.83;;
36475;SDS011;56615;42.682;23.364;2022-08-11T18:26:07;8.57;;;4.00;;
36475;SDS011;56615;42.682;23.364;2022-08-11T18:28:54;7.50;;;3.80;;
36475;SDS011;56615;42.682;23.364;2022-08-11T18:31:47;6.75;;;4.00;;
36475;SDS011;56615;42.682;23.364;2022-08-11T18:34:35;6.97;;;3.88;;
36475;SDS011;56615;42.682;23.364;2022-08-11T18:37:24;9.15;;;4.20;;
36475;SDS011;56615;42.682;23.364;2022-08-11T18:40:18;8.50;;;3.83;;
36475;SDS011;56615;42.682;23.364;2022-08-11T18:45:52;7.40;;;3.50;;
36475;SDS011;56615;42.682;23.364;2022-08-11T18:48:45;4.07;;;2.95;;
36475;SDS011;56615;42.682;23.364;2022-08-11T18:51:31;7.05;;;3.55;;
36475;SDS011;56615;42.682;23.364;2022-08-11T18:54:16;5.43;;;3.58;;
36475;SDS011;56615;42.682;23.364;2022-08-11T18:57:01;5.80;;;3.58;;
36475;SDS011;56615;42.682;23.364;2022-08-11T18:59:47;7.10;;;4.15;;
36475;SDS011;56615;42.682;23.364;2022-08-11T19:02:34;7.18;;;3.72;;
36475;SDS011;56615;42.682;23.364;2022-08-11T19:05:20;5.88;;;4.15;;
36475;SDS011;56615;42.682;23.364;2022-08-11T19:08:14;7.05;;;4.00;;
36475;SDS011;56615;42.682;23.364;2022-08-11T19:11:01;8.07;;;3.90;;
36475;SDS011;56615;42.682;23.364;2022-08-11T19:14:03;5.82;;;3.50;;
36475;SDS011;56615;42.682;23.364;2022-08-11T19:16:48;6.65;;;3.65;;
36475;SDS011;56615;42.682;23.364;2022-08-11T19:19:35;10.05;;;4.00;;
36475;SDS011;56615;42.682;23.364;2022-08-11T19:22:20;5.30;;;3.30;;
36475;SDS011;56615;42.682;23.364;2022-08-11T19:25:05;5.45;;;3.15;;
36475;SDS011;56615;42.682;23.364;2022-08-11T19:27:50;4.65;;;3.50;;
36475;SDS011;56615;42.682;23.364;2022-08-11T19:30:34;4.80;;;3.22;;
36475;SDS011;56615;42.682;23.364;2022-08-11T19:33:18;6.05;;;3.50;;
36475;SDS011;56615;42.682;23.364;2022-08-11T19:36:04;7.35;;;3.60;;
36475;SDS011;56615;42.682;23.364;2022-08-11T19:38:48;7.18;;;3.78;;
36475;SDS011;56615;42.682;23.364;2022-08-11T19:41:32;9.05;;;4.07;;
36475;SDS011;56615;42.682;23.364;2022-08-11T19:44:17;9.38;;;4.38;;
36475;SDS011;56615;42.682;23.364;2022-08-11T19:47:07;5.45;;;3.58;;
36475;SDS011;56615;42.682;23.364;2022-08-11T19:49:51;8.95;;;4.53;;
36475;SDS011;56615;42.682;23.364;2022-08-11T19:52:36;6.70;;;3.83;;
36475;SDS011;56615;42.682;23.364;2022-08-11T19:55:24;7.07;;;3.92;;
36475;SDS011;56615;42.682;23.364;2022-08-11T19:58:10;6.70;;;3.70;;
36475;SDS011;56615;42.682;23.364;2022-08-11T20:00:54;8.95;;;4.05;;
36475;SDS011;56615;42.682;23.364;2022-08-11T20:03:38;8.50;;;4.72;;
36475;SDS011;56615;42.682;23.364;2022-08-11T20:06:22;9.13;;;5.13;;
36475;SDS011;56615;42.682;23.364;2022-08-11T20:09:07;8.65;;;4.03;;
36475;SDS011;56615;42.682;23.364;2022-08-11T20:11:52;10.15;;;3.60;;
36475;SDS011;56615;42.682;23.364;2022-08-11T20:14:38;5.68;;;3.60;;
36475;SDS011;56615;42.682;23.364;2022-08-11T20:17:25;6.85;;;3.90;;
36475;SDS011;56615;42.682;23.364;2022-08-11T20:20:14;6.45;;;3.50;;
36475;SDS011;56615;42.682;23.364;2022-08-11T20:22:59;9.00;;;3.97;;
36475;SDS011;56615;42.682;23.364;2022-08-11T20:25:46;6.97;;;4.05;;
36475;SDS011;56615;42.682;23.364;2022-08-11T20:28:31;8.02;;;4.10;;
36475;SDS011;56615;42.682;23.364;2022-08-11T20:31:17;5.70;;;3.70;;
36475;SDS011;56615;42.682;23.364;2022-08-11T20:34:03;10.05;;;5.18;;
36475;SDS011;56615;42.682;23.364;2022-08-11T20:36:48;7.47;;;4.70;;
36475;SDS011;56615;42.682;23.364;2022-08-11T20:39:33;6.82;;;4.70;;
36475;SDS011;56615;42.682;23.364;2022-08-11T20:42:20;8.23;;;4.03;;
36475;SDS011;56615;42.682;23.364;2022-08-11T20:45:05;6.90;;;3.80;;
36475;SDS011;56615;42.682;23.364;2022-08-11T20:47:54;9.48;;;4.38;;
36475;SDS011;56615;42.682;23.364;2022-08-11T20:50:39;8.73;;;4.97;;
36475;SDS011;56615;42.682;23.364;2022-08-11T20:53:28;6.75;;;3.90;;
36475;SDS011;56615;42.682;23.364;2022-08-11T20:56:13;6.03;;;3.83;;
36475;SDS011;56615;42.682;23.364;2022-08-11T20:58:57;6.05;;;3.70;;
36475;SDS011;56615;42.682;23.364;2022-08-11T21:01:42;6.70;;;3.75;;
36475;SDS011;56615;42.682;23.364;2022-08-11T21:07:48;6.72;;;3.65;;
36475;SDS011;56615;42.682;23.364;2022-08-11T21:10:38;9.48;;;3.88;;
36475;SDS011;56615;42.682;23.364;2022-08-11T21:13:25;9.68;;;3.90;;
36475;SDS011;56615;42.682;23.364;2022-08-11T21:16:12;7.32;;;3.58;;
36475;SDS011;56615;42.682;23.364;2022-08-11T21:19:15;6.95;;;3.67;;
36475;SDS011;56615;42.682;23.364;2022-08-11T21:22:04;6.93;;;3.78;;
36475;SDS011;56615;42.682;23.364;2022-08-11T21:24:49;9.60;;;3.72;;
36475;SDS011;56615;42.682;23.364;2022-08-11T21:27:33;6.25;;;3.65;;
36475;SDS011;56615;42.682;23.364;2022-08-11T21:30:21;6.40;;;3.65;;
36475;SDS011;56615;42.682;23.364;2022-08-11T21:33:06;6.65;;;3.45;;
36475;SDS011;56615;42.682;23.364;2022-08-11T21:35:51;6.90;;;3.70;;
36475;SDS011;56615;42.682;23.364;2022-08-11T21:38:35;5.57;;;3.80;;
36475;SDS011;56615;42.682;23.364;2022-08-11T21:41:19;7.13;;;4.03;;
36475;SDS011;56615;42.682;23.364;2022-08-11T21:44:04;8.18;;;3.70;;
36475;SDS011;56615;42.682;23.364;2022-08-11T21:46:48;5.43;;;3.50;;
36475;SDS011;56615;42.682;23.364;2022-08-11T21:49:33;6.65;;;3.38;;
36475;SDS011;56615;42.682;23.364;2022-08-11T21:52:18;5.55;;;3.63;;
36475;SDS011;56615;42.682;23.364;2022-08-11T21:55:02;5.63;;;3.42;;
36475;SDS011;56615;42.682;23.364;2022-08-11T21:57:46;6.63;;;3.50;;
36475;SDS011;56615;42.682;23.364;2022-08-11T22:00:37;7.90;;;4.13;;
36475;SDS011;56615;42.682;23.364;2022-08-11T22:03:22;6.85;;;4.20;;
36475;SDS011;56615;42.682;23.364;2022-08-11T22:06:06;7.07;;;3.97;;
36475;SDS011;56615;42.682;23.364;2022-08-11T22:09:09;7.05;;;3.90;;
36475;SDS011;56615;42.682;23.364;2022-08-11T22:11:53;7.50;;;3.70;;
36475;SDS011;56615;42.682;23.364;2022-08-11T22:14:38;5.07;;;3.55;;
36475;SDS011;56615;42.682;23.364;2022-08-11T22:17:24;8.13;;;3.55;;
36475;SDS011;56615;42.682;23.364;2022-08-11T22:20:09;6.70;;;3.85;;
36475;SDS011;56615;42.682;23.364;2022-08-11T22:23:05;5.88;;;3.85;;
36475;SDS011;56615;42.682;23.364;2022-08-11T22:25:50;8.75;;;4.25;;
36475;SDS011;56615;42.682;23.364;2022-08-11T22:28:34;8.82;;;4.10;;
36475;SDS011;56615;42.682;23.364;2022-08-11T22:31:18;6.93;;;4.22;;
36475;SDS011;56615;42.682;23.364;2022-08-11T22:34:03;5.53;;;3.65;;
36475;SDS011;56615;42.682;23.364;2022-08-11T22:36:47;6.43;;;4.13;;
36475;SDS011;56615;42.682;23.364;2022-08-11T22:39:32;6.88;;;4.00;;
36475;SDS011;56615;42.682;23.364;2022-08-11T22:42:17;7.50;;;4.63;;
36475;SDS011;56615;42.682;23.364;2022-08-11T22:45:01;6.88;;;4.25;;
36475;SDS011;56615;42.682;23.364;2022-08-11T22:47:46;7.38;;;4.20;;
36475;SDS011;56615;42.682;23.364;2022-08-11T22:50:30;7.47;;;4.13;;
36475;SDS011;56615;42.682;23.364;2022-08-11T22:53:15;5.57;;;3.80;;
36475;SDS011;56615;42.682;23.364;2022-08-11T22:56:00;8.70;;;4.07;;
36475;SDS011;56615;42.682;23.364;2022-08-11T22:58:43;4.97;;;3.42;;
36475;SDS011;56615;42.682;23.364;2022-08-11T23:04:17;6.00;;;3.65;;
36475;SDS011;56615;42.682;23.364;2022-08-11T23:07:02;5.85;;;3.58;;
36475;SDS011;56615;42.682;23.364;2022-08-11T23:09:49;6.30;;;3.67;;
36475;SDS011;56615;42.682;23.364;2022-08-11T23:12:33;6.30;;;3.83;;
36475;SDS011;56615;42.682;23.364;2022-08-11T23:15:18;6.07;;;3.67;;
36475;SDS011;56615;42.682;23.364;2022-08-11T23:18:02;5.63;;;3.70;;
36475;SDS011;56615;42.682;23.364;2022-08-11T23:20:47;7.78;;;4.20;;
36475;SDS011;56615;42.682;23.364;2022-08-11T23:23:31;6.55;;;3.80;;
36475;SDS011;56615;42.682;23.364;2022-08-11T23:26:16;7.35;;;4.05;;
36475;SDS011;56615;42.682;23.364;2022-08-11T23:29:02;8.65;;;4.10;;
36475;SDS011;56615;42.682;23.364;2022-08-11T23:31:47;5.78;;;3.85;;
36475;SDS011;56615;42.682;23.364;2022-08-11T23:34:34;6.43;;;3.72;;
36475;SDS011;56615;42.682;23.364;2022-08-11T23:37:20;8.45;;;3.90;;
36475;SDS011;56615;42.682;23.364;2022-08-11T23:40:04;5.60;;;4.00;;
36475;SDS011;56615;42.682;23.364;2022-08-11T23:42:49;5.63;;;3.80;;
36475;SDS011;56615;42.682;23.364;2022-08-11T23:45:33;6.38;;;3.70;;
36475;SDS011;56615;42.682;23.364;2022-08-11T23:48:17;5.80;;;3.53;;
36475;SDS011;56615;42.682;23.364;2022-08-11T23:51:04;6.13;;;3.80;;
36475;SDS011;56615;42.682;23.364;2022-08-11T23:53:48;6.60;;;3.88;;
36475;SDS011;56615;42.682;23.364;2022-08-11T23:56:32;6.97;;;3.70;;
36475;SDS011;56615;42.682;23.364;2022-08-11T23:59:17;6.25;;;3.80;;
